Terminal Aerodrome Forecast
Issued by NWS

Home | Current Version | Previous Version | Text Only | Print | Product List | Glossary On
Versions: 1 2 3 4 5 6 7 8 9 10 11 12 13 14 15 16 17 18 19 20 21 22
701
FTUS41 KBGM 251129
TAFELM
TAF
KELM 251129Z 2512/2612 20011G19KT P6SM BKN045
     FM251600 18014G24KT 6SM -SHRA BR BKN035
      TEMPO 2517/2519 2SM +TSRA BR OVC025CB
     FM252100 26012G25KT P6SM -RASN OVC040
     FM260300 28014G29KT 6SM -SN BLSN SCT060 OVC080
     FM261100 28010G21KT P6SM BKN035=

USA.gov is the U.S. government's official web portal to all federal, state and local government web resources and services.